sensor_id;sensor_type;location;lat;lon;timestamp;P1;durP1;ratioP1;P2;durP2;ratioP2
58992;SDS011;44782;0.000;0.000;2023-04-15T00:00:21;1.20;;;1.10;;
58992;SDS011;44782;0.000;0.000;2023-04-15T00:02:36;1.00;;;1.00;;
58992;SDS011;44782;0.000;0.000;2023-04-15T00:04:52;1.20;;;1.10;;
58992;SDS011;44782;0.000;0.000;2023-04-15T00:07:08;1.20;;;1.10;;
58992;SDS011;44782;0.000;0.000;2023-04-15T00:09:24;1.23;;;1.10;;
58992;SDS011;44782;0.000;0.000;2023-04-15T00:11:39;1.33;;;1.20;;
58992;SDS011;44782;0.000;0.000;2023-04-15T00:13:55;1.20;;;1.10;;
58992;SDS011;44782;0.000;0.000;2023-04-15T00:16:10;1.10;;;1.10;;
58992;SDS011;44782;0.000;0.000;2023-04-15T00:18:26;1.30;;;1.20;;
58992;SDS011;44782;0.000;0.000;2023-04-15T00:20:43;1.30;;;1.20;;
58992;SDS011;44782;0.000;0.000;2023-04-15T00:22:59;1.03;;;1.00;;
58992;SDS011;44782;0.000;0.000;2023-04-15T00:25:14;1.40;;;1.30;;
58992;SDS011;44782;0.000;0.000;2023-04-15T00:27:30;1.40;;;1.30;;
58992;SDS011;44782;0.000;0.000;2023-04-15T00:29:46;1.33;;;1.23;;
58992;SDS011;44782;0.000;0.000;2023-04-15T00:32:02;1.20;;;1.13;;
58992;SDS011;44782;0.000;0.000;2023-04-15T00:34:17;1.20;;;1.10;;
58992;SDS011;44782;0.000;0.000;2023-04-15T00:36:33;1.40;;;1.30;;
58992;SDS011;44782;0.000;0.000;2023-04-15T00:38:49;1.30;;;1.20;;
58992;SDS011;44782;0.000;0.000;2023-04-15T00:41:05;1.10;;;1.00;;
58992;SDS011;44782;0.000;0.000;2023-04-15T00:43:21;1.07;;;1.07;;
58992;SDS011;44782;0.000;0.000;2023-04-15T00:45:37;1.30;;;1.20;;
58992;SDS011;44782;0.000;0.000;2023-04-15T00:47:53;1.13;;;1.00;;
58992;SDS011;44782;0.000;0.000;2023-04-15T00:50:10;1.30;;;1.20;;
58992;SDS011;44782;0.000;0.000;2023-04-15T00:52:26;1.00;;;1.00;;
58992;SDS011;44782;0.000;0.000;2023-04-15T00:54:42;1.27;;;1.17;;
58992;SDS011;44782;0.000;0.000;2023-04-15T00:56:57;1.03;;;1.03;;
58992;SDS011;44782;0.000;0.000;2023-04-15T00:59:14;1.23;;;1.13;;
58992;SDS011;44782;0.000;0.000;2023-04-15T01:01:35;1.10;;;1.10;;
58992;SDS011;44782;0.000;0.000;2023-04-15T01:03:52;1.27;;;1.20;;
58992;SDS011;44782;0.000;0.000;2023-04-15T01:06:09;1.23;;;1.13;;
58992;SDS011;44782;0.000;0.000;2023-04-15T01:08:26;1.27;;;1.27;;
58992;SDS011;44782;0.000;0.000;2023-04-15T01:10:45;1.30;;;1.20;;
58992;SDS011;44782;0.000;0.000;2023-04-15T01:13:01;1.40;;;1.30;;
58992;SDS011;44782;0.000;0.000;2023-04-15T01:15:17;1.40;;;1.30;;
58992;SDS011;44782;0.000;0.000;2023-04-15T01:17:34;1.13;;;1.13;;
58992;SDS011;44782;0.000;0.000;2023-04-15T01:19:50;1.40;;;1.30;;
58992;SDS011;44782;0.000;0.000;2023-04-15T01:22:06;1.00;;;1.00;;
58992;SDS011;44782;0.000;0.000;2023-04-15T01:24:22;1.33;;;1.23;;
58992;SDS011;44782;0.000;0.000;2023-04-15T01:26:40;1.30;;;1.20;;
58992;SDS011;44782;0.000;0.000;2023-04-15T01:28:55;1.40;;;1.30;;
58992;SDS011;44782;0.000;0.000;2023-04-15T01:31:12;1.23;;;1.13;;
58992;SDS011;44782;0.000;0.000;2023-04-15T01:33:28;1.30;;;1.20;;
58992;SDS011;44782;0.000;0.000;2023-04-15T01:35:44;1.37;;;1.27;;
58992;SDS011;44782;0.000;0.000;2023-04-15T01:38:07;1.20;;;1.10;;
58992;SDS011;44782;0.000;0.000;2023-04-15T01:40:23;1.33;;;1.23;;
58992;SDS011;44782;0.000;0.000;2023-04-15T01:42:39;1.30;;;1.20;;
58992;SDS011;44782;0.000;0.000;2023-04-15T01:44:55;1.47;;;1.30;;
58992;SDS011;44782;0.000;0.000;2023-04-15T01:47:14;1.37;;;1.27;;
58992;SDS011;44782;0.000;0.000;2023-04-15T01:49:30;1.40;;;1.30;;
58992;SDS011;44782;0.000;0.000;2023-04-15T01:51:46;1.40;;;1.23;;
58992;SDS011;44782;0.000;0.000;2023-04-15T01:54:01;1.40;;;1.30;;
58992;SDS011;44782;0.000;0.000;2023-04-15T01:56:18;1.30;;;1.20;;
58992;SDS011;44782;0.000;0.000;2023-04-15T01:58:33;1.37;;;1.27;;
58992;SDS011;44782;0.000;0.000;2023-04-15T02:00:49;1.27;;;1.20;;
58992;SDS011;44782;0.000;0.000;2023-04-15T02:03:05;1.30;;;1.20;;
58992;SDS011;44782;0.000;0.000;2023-04-15T02:05:21;1.20;;;1.10;;
58992;SDS011;44782;0.000;0.000;2023-04-15T02:10:02;1.23;;;1.10;;
58992;SDS011;44782;0.000;0.000;2023-04-15T02:12:18;1.10;;;1.10;;
58992;SDS011;44782;0.000;0.000;2023-04-15T02:14:35;1.37;;;1.23;;
58992;SDS011;44782;0.000;0.000;2023-04-15T02:16:50;1.40;;;1.30;;
58992;SDS011;44782;0.000;0.000;2023-04-15T02:19:06;1.50;;;1.40;;
58992;SDS011;44782;0.000;0.000;2023-04-15T02:21:21;1.23;;;1.13;;
58992;SDS011;44782;0.000;0.000;2023-04-15T02:23:37;1.20;;;1.10;;
58992;SDS011;44782;0.000;0.000;2023-04-15T02:25:53;1.30;;;1.20;;
58992;SDS011;44782;0.000;0.000;2023-04-15T02:28:08;1.40;;;1.30;;
58992;SDS011;44782;0.000;0.000;2023-04-15T02:30:24;1.17;;;1.10;;
58992;SDS011;44782;0.000;0.000;2023-04-15T02:32:41;1.30;;;1.20;;
58992;SDS011;44782;0.000;0.000;2023-04-15T02:35:02;1.40;;;1.30;;
58992;SDS011;44782;0.000;0.000;2023-04-15T02:37:19;1.30;;;1.20;;
58992;SDS011;44782;0.000;0.000;2023-04-15T02:39:35;1.40;;;1.30;;
58992;SDS011;44782;0.000;0.000;2023-04-15T02:41:51;1.93;;;1.20;;
58992;SDS011;44782;0.000;0.000;2023-04-15T02:44:07;1.27;;;1.17;;
58992;SDS011;44782;0.000;0.000;2023-04-15T02:46:23;1.20;;;1.10;;
58992;SDS011;44782;0.000;0.000;2023-04-15T02:48:39;1.40;;;1.30;;
58992;SDS011;44782;0.000;0.000;2023-04-15T02:53:30;1.40;;;1.30;;
58992;SDS011;44782;0.000;0.000;2023-04-15T02:55:46;1.40;;;1.30;;
58992;SDS011;44782;0.000;0.000;2023-04-15T02:58:02;1.57;;;1.40;;
58992;SDS011;44782;0.000;0.000;2023-04-15T03:00:17;1.50;;;1.40;;
58992;SDS011;44782;0.000;0.000;2023-04-15T03:02:37;1.10;;;1.10;;
58992;SDS011;44782;0.000;0.000;2023-04-15T03:04:53;1.30;;;1.20;;
58992;SDS011;44782;0.000;0.000;2023-04-15T03:07:09;1.30;;;1.20;;
58992;SDS011;44782;0.000;0.000;2023-04-15T03:09:24;1.10;;;1.07;;
58992;SDS011;44782;0.000;0.000;2023-04-15T03:11:40;1.43;;;1.10;;
58992;SDS011;44782;0.000;0.000;2023-04-15T03:13:56;1.30;;;1.20;;
58992;SDS011;44782;0.000;0.000;2023-04-15T03:16:12;1.33;;;1.23;;
58992;SDS011;44782;0.000;0.000;2023-04-15T03:18:28;1.30;;;1.20;;
58992;SDS011;44782;0.000;0.000;2023-04-15T03:20:43;1.43;;;1.33;;
58992;SDS011;44782;0.000;0.000;2023-04-15T03:22:59;1.37;;;1.27;;
58992;SDS011;44782;0.000;0.000;2023-04-15T03:25:15;1.30;;;1.20;;
58992;SDS011;44782;0.000;0.000;2023-04-15T03:27:31;1.27;;;1.17;;
58992;SDS011;44782;0.000;0.000;2023-04-15T03:29:46;1.50;;;1.40;;
58992;SDS011;44782;0.000;0.000;2023-04-15T03:32:02;1.20;;;1.13;;
58992;SDS011;44782;0.000;0.000;2023-04-15T03:34:18;1.30;;;1.20;;
58992;SDS011;44782;0.000;0.000;2023-04-15T03:36:34;1.40;;;1.30;;
58992;SDS011;44782;0.000;0.000;2023-04-15T03:38:50;1.10;;;1.10;;
58992;SDS011;44782;0.000;0.000;2023-04-15T03:41:06;1.40;;;1.30;;
58992;SDS011;44782;0.000;0.000;2023-04-15T03:43:23;1.30;;;1.20;;
58992;SDS011;44782;0.000;0.000;2023-04-15T03:45:39;1.30;;;1.20;;
58992;SDS011;44782;0.000;0.000;2023-04-15T03:47:54;1.33;;;1.23;;
58992;SDS011;44782;0.000;0.000;2023-04-15T03:50:10;1.60;;;1.40;;
58992;SDS011;44782;0.000;0.000;2023-04-15T03:52:26;1.10;;;1.10;;
58992;SDS011;44782;0.000;0.000;2023-04-15T03:54:42;1.40;;;1.30;;
58992;SDS011;44782;0.000;0.000;2023-04-15T03:56:57;1.30;;;1.20;;
58992;SDS011;44782;0.000;0.000;2023-04-15T03:59:13;1.53;;;1.40;;
58992;SDS011;44782;0.000;0.000;2023-04-15T04:01:29;1.27;;;1.17;;
58992;SDS011;44782;0.000;0.000;2023-04-15T04:03:45;1.17;;;1.17;;
58992;SDS011;44782;0.000;0.000;2023-04-15T04:06:00;1.37;;;1.27;;
58992;SDS011;44782;0.000;0.000;2023-04-15T04:08:16;1.20;;;1.20;;
58992;SDS011;44782;0.000;0.000;2023-04-15T04:10:33;1.40;;;1.30;;
58992;SDS011;44782;0.000;0.000;2023-04-15T04:12:49;1.60;;;1.40;;
58992;SDS011;44782;0.000;0.000;2023-04-15T04:15:05;1.40;;;1.30;;
58992;SDS011;44782;0.000;0.000;2023-04-15T04:17:21;1.50;;;1.40;;
58992;SDS011;44782;0.000;0.000;2023-04-15T04:19:37;1.30;;;1.20;;
58992;SDS011;44782;0.000;0.000;2023-04-15T04:21:52;1.40;;;1.30;;
58992;SDS011;44782;0.000;0.000;2023-04-15T04:24:08;1.43;;;1.33;;
58992;SDS011;44782;0.000;0.000;2023-04-15T04:26:24;1.40;;;1.30;;
58992;SDS011;44782;0.000;0.000;2023-04-15T04:28:40;1.40;;;1.30;;
58992;SDS011;44782;0.000;0.000;2023-04-15T04:30:56;1.40;;;1.30;;
58992;SDS011;44782;0.000;0.000;2023-04-15T04:33:11;1.30;;;1.20;;
58992;SDS011;44782;0.000;0.000;2023-04-15T04:35:27;1.33;;;1.23;;
58992;SDS011;44782;0.000;0.000;2023-04-15T04:37:43;1.30;;;1.20;;
58992;SDS011;44782;0.000;0.000;2023-04-15T04:39:58;1.40;;;1.30;;
58992;SDS011;44782;0.000;0.000;2023-04-15T04:42:14;1.40;;;1.30;;
58992;SDS011;44782;0.000;0.000;2023-04-15T04:44:30;1.33;;;1.27;;
58992;SDS011;44782;0.000;0.000;2023-04-15T04:46:45;1.40;;;1.30;;
58992;SDS011;44782;0.000;0.000;2023-04-15T04:49:01;1.40;;;1.30;;
58992;SDS011;44782;0.000;0.000;2023-04-15T04:51:17;1.40;;;1.30;;
58992;SDS011;44782;0.000;0.000;2023-04-15T04:53:32;1.10;;;1.10;;
58992;SDS011;44782;0.000;0.000;2023-04-15T04:55:48;1.40;;;1.30;;
58992;SDS011;44782;0.000;0.000;2023-04-15T04:58:04;1.40;;;1.30;;
58992;SDS011;44782;0.000;0.000;2023-04-15T05:00:20;1.30;;;1.20;;
58992;SDS011;44782;0.000;0.000;2023-04-15T05:02:36;1.40;;;1.30;;
58992;SDS011;44782;0.000;0.000;2023-04-15T05:04:52;1.40;;;1.30;;
58992;SDS011;44782;0.000;0.000;2023-04-15T05:07:08;1.83;;;1.30;;
58992;SDS011;44782;0.000;0.000;2023-04-15T05:09:24;1.30;;;1.20;;
58992;SDS011;44782;0.000;0.000;2023-04-15T05:11:40;1.37;;;1.30;;
58992;SDS011;44782;0.000;0.000;2023-04-15T05:13:56;1.03;;;1.00;;
58992;SDS011;44782;0.000;0.000;2023-04-15T05:16:13;1.20;;;1.20;;
58992;SDS011;44782;0.000;0.000;2023-04-15T05:18:29;1.20;;;1.20;;
58992;SDS011;44782;0.000;0.000;2023-04-15T05:20:45;1.27;;;1.20;;
58992;SDS011;44782;0.000;0.000;2023-04-15T05:23:01;1.30;;;1.23;;
58992;SDS011;44782;0.000;0.000;2023-04-15T05:25:17;1.40;;;1.27;;
58992;SDS011;44782;0.000;0.000;2023-04-15T05:27:32;1.30;;;1.20;;
58992;SDS011;44782;0.000;0.000;2023-04-15T05:29:48;1.27;;;1.17;;
58992;SDS011;44782;0.000;0.000;2023-04-15T05:32:04;1.20;;;1.20;;
58992;SDS011;44782;0.000;0.000;2023-04-15T05:34:20;1.20;;;1.10;;
58992;SDS011;44782;0.000;0.000;2023-04-15T05:36:36;1.50;;;1.40;;
58992;SDS011;44782;0.000;0.000;2023-04-15T05:38:52;1.03;;;1.03;;
58992;SDS011;44782;0.000;0.000;2023-04-15T05:41:08;1.07;;;1.07;;
58992;SDS011;44782;0.000;0.000;2023-04-15T05:43:23;1.10;;;1.10;;
58992;SDS011;44782;0.000;0.000;2023-04-15T05:45:39;1.33;;;1.23;;
58992;SDS011;44782;0.000;0.000;2023-04-15T05:47:55;1.20;;;1.10;;
58992;SDS011;44782;0.000;0.000;2023-04-15T05:50:10;1.20;;;1.10;;
58992;SDS011;44782;0.000;0.000;2023-04-15T05:52:26;1.20;;;1.10;;
58992;SDS011;44782;0.000;0.000;2023-04-15T05:54:42;1.10;;;1.10;;
58992;SDS011;44782;0.000;0.000;2023-04-15T05:56:58;1.40;;;1.30;;
58992;SDS011;44782;0.000;0.000;2023-04-15T05:59:14;1.30;;;1.20;;
58992;SDS011;44782;0.000;0.000;2023-04-15T06:01:31;1.20;;;1.10;;
58992;SDS011;44782;0.000;0.000;2023-04-15T06:03:48;1.10;;;1.10;;
58992;SDS011;44782;0.000;0.000;2023-04-15T06:06:04;0.90;;;0.90;;
58992;SDS011;44782;0.000;0.000;2023-04-15T06:08:20;1.00;;;1.00;;
58992;SDS011;44782;0.000;0.000;2023-04-15T06:10:36;0.90;;;0.90;;
58992;SDS011;44782;0.000;0.000;2023-04-15T06:12:52;0.90;;;0.90;;
58992;SDS011;44782;0.000;0.000;2023-04-15T06:15:07;1.30;;;1.20;;
58992;SDS011;44782;0.000;0.000;2023-04-15T06:17:26;1.10;;;1.00;;
58992;SDS011;44782;0.000;0.000;2023-04-15T06:19:42;1.60;;;0.90;;
58992;SDS011;44782;0.000;0.000;2023-04-15T06:21:58;1.00;;;1.00;;
58992;SDS011;44782;0.000;0.000;2023-04-15T06:24:13;0.90;;;0.90;;
58992;SDS011;44782;0.000;0.000;2023-04-15T06:26:29;1.00;;;1.00;;
58992;SDS011;44782;0.000;0.000;2023-04-15T06:28:45;0.90;;;0.90;;
58992;SDS011;44782;0.000;0.000;2023-04-15T06:31:00;1.00;;;1.00;;
58992;SDS011;44782;0.000;0.000;2023-04-15T06:33:16;1.00;;;1.00;;
58992;SDS011;44782;0.000;0.000;2023-04-15T06:35:32;0.80;;;0.80;;
58992;SDS011;44782;0.000;0.000;2023-04-15T06:37:47;0.87;;;0.87;;
58992;SDS011;44782;0.000;0.000;2023-04-15T06:40:03;0.90;;;0.90;;
58992;SDS011;44782;0.000;0.000;2023-04-15T06:42:19;1.00;;;1.00;;
58992;SDS011;44782;0.000;0.000;2023-04-15T06:44:35;1.00;;;1.00;;
58992;SDS011;44782;0.000;0.000;2023-04-15T06:46:51;0.93;;;0.93;;
58992;SDS011;44782;0.000;0.000;2023-04-15T06:49:07;1.00;;;1.00;;
58992;SDS011;44782;0.000;0.000;2023-04-15T06:51:23;1.10;;;1.00;;
58992;SDS011;44782;0.000;0.000;2023-04-15T06:53:38;1.10;;;1.10;;
58992;SDS011;44782;0.000;0.000;2023-04-15T06:55:56;0.93;;;0.93;;
58992;SDS011;44782;0.000;0.000;2023-04-15T06:58:12;1.00;;;1.00;;
58992;SDS011;44782;0.000;0.000;2023-04-15T07:00:27;1.00;;;1.00;;
58992;SDS011;44782;0.000;0.000;2023-04-15T07:02:43;0.97;;;0.97;;
58992;SDS011;44782;0.000;0.000;2023-04-15T07:04:59;0.90;;;0.90;;
58992;SDS011;44782;0.000;0.000;2023-04-15T07:07:14;1.00;;;1.00;;
58992;SDS011;44782;0.000;0.000;2023-04-15T07:09:31;1.03;;;1.00;;
58992;SDS011;44782;0.000;0.000;2023-04-15T07:11:48;0.90;;;0.90;;
58992;SDS011;44782;0.000;0.000;2023-04-15T07:14:03;1.00;;;1.00;;
58992;SDS011;44782;0.000;0.000;2023-04-15T07:16:19;0.77;;;0.77;;
58992;SDS011;44782;0.000;0.000;2023-04-15T07:18:35;0.93;;;0.93;;
58992;SDS011;44782;0.000;0.000;2023-04-15T07:20:51;0.80;;;0.80;;
58992;SDS011;44782;0.000;0.000;2023-04-15T07:23:07;1.00;;;1.00;;
58992;SDS011;44782;0.000;0.000;2023-04-15T07:25:22;1.40;;;1.10;;
58992;SDS011;44782;0.000;0.000;2023-04-15T07:27:38;0.90;;;0.90;;
58992;SDS011;44782;0.000;0.000;2023-04-15T07:29:54;0.80;;;0.80;;
58992;SDS011;44782;0.000;0.000;2023-04-15T07:32:10;1.00;;;0.90;;
58992;SDS011;44782;0.000;0.000;2023-04-15T07:34:26;0.87;;;0.87;;
58992;SDS011;44782;0.000;0.000;2023-04-15T07:36:42;0.90;;;0.90;;
58992;SDS011;44782;0.000;0.000;2023-04-15T07:38:58;1.10;;;1.00;;
58992;SDS011;44782;0.000;0.000;2023-04-15T07:41:16;0.93;;;0.93;;
58992;SDS011;44782;0.000;0.000;2023-04-15T07:43:32;0.90;;;0.90;;
58992;SDS011;44782;0.000;0.000;2023-04-15T07:45:47;1.07;;;1.07;;
58992;SDS011;44782;0.000;0.000;2023-04-15T07:48:03;0.90;;;0.90;;
58992;SDS011;44782;0.000;0.000;2023-04-15T07:50:20;0.90;;;0.90;;
58992;SDS011;44782;0.000;0.000;2023-04-15T07:52:37;0.93;;;0.93;;
58992;SDS011;44782;0.000;0.000;2023-04-15T07:54:55;0.90;;;0.90;;
58992;SDS011;44782;0.000;0.000;2023-04-15T07:57:11;0.90;;;0.90;;
58992;SDS011;44782;0.000;0.000;2023-04-15T07:59:27;0.80;;;0.80;;
58992;SDS011;44782;0.000;0.000;2023-04-15T08:01:45;0.80;;;0.80;;
58992;SDS011;44782;0.000;0.000;2023-04-15T08:04:00;0.90;;;0.90;;
58992;SDS011;44782;0.000;0.000;2023-04-15T08:06:17;0.87;;;0.87;;
58992;SDS011;44782;0.000;0.000;2023-04-15T08:08:32;0.80;;;0.80;;
58992;SDS011;44782;0.000;0.000;2023-04-15T08:10:48;0.93;;;0.93;;
58992;SDS011;44782;0.000;0.000;2023-04-15T08:13:04;0.80;;;0.80;;
58992;SDS011;44782;0.000;0.000;2023-04-15T08:15:20;0.77;;;0.77;;
58992;SDS011;44782;0.000;0.000;2023-04-15T08:17:36;0.90;;;0.90;;
58992;SDS011;44782;0.000;0.000;2023-04-15T08:19:52;0.80;;;0.80;;
58992;SDS011;44782;0.000;0.000;2023-04-15T08:22:08;0.80;;;0.80;;
58992;SDS011;44782;0.000;0.000;2023-04-15T08:24:25;0.97;;;0.90;;
58992;SDS011;44782;0.000;0.000;2023-04-15T08:26:41;0.80;;;0.80;;
58992;SDS011;44782;0.000;0.000;2023-04-15T08:28:57;0.80;;;0.80;;
58992;SDS011;44782;0.000;0.000;2023-04-15T08:31:13;0.90;;;0.90;;
58992;SDS011;44782;0.000;0.000;2023-04-15T08:33:30;0.90;;;0.90;;
58992;SDS011;44782;0.000;0.000;2023-04-15T08:35:46;0.80;;;0.80;;
58992;SDS011;44782;0.000;0.000;2023-04-15T08:38:02;1.10;;;1.00;;
58992;SDS011;44782;0.000;0.000;2023-04-15T08:40:18;0.90;;;0.90;;
58992;SDS011;44782;0.000;0.000;2023-04-15T08:42:36;0.90;;;0.90;;
58992;SDS011;44782;0.000;0.000;2023-04-15T08:44:58;0.90;;;0.90;;
58992;SDS011;44782;0.000;0.000;2023-04-15T08:47:15;0.90;;;0.90;;
58992;SDS011;44782;0.000;0.000;2023-04-15T08:49:38;0.70;;;0.70;;
58992;SDS011;44782;0.000;0.000;2023-04-15T08:51:56;0.90;;;0.90;;
58992;SDS011;44782;0.000;0.000;2023-04-15T08:54:13;0.80;;;0.80;;
58992;SDS011;44782;0.000;0.000;2023-04-15T08:56:30;0.83;;;0.83;;
58992;SDS011;44782;0.000;0.000;2023-04-15T08:58:49;0.73;;;0.73;;
58992;SDS011;44782;0.000;0.000;2023-04-15T09:01:05;0.83;;;0.83;;
58992;SDS011;44782;0.000;0.000;2023-04-15T09:03:21;0.70;;;0.70;;
58992;SDS011;44782;0.000;0.000;2023-04-15T09:05:37;0.87;;;0.87;;
58992;SDS011;44782;0.000;0.000;2023-04-15T09:07:53;0.90;;;0.90;;
58992;SDS011;44782;0.000;0.000;2023-04-15T09:10:09;0.80;;;0.80;;
58992;SDS011;44782;0.000;0.000;2023-04-15T09:12:25;0.90;;;0.90;;
58992;SDS011;44782;0.000;0.000;2023-04-15T09:14:47;0.87;;;0.87;;
58992;SDS011;44782;0.000;0.000;2023-04-15T09:17:03;0.80;;;0.80;;
58992;SDS011;44782;0.000;0.000;2023-04-15T09:19:19;0.80;;;0.80;;
58992;SDS011;44782;0.000;0.000;2023-04-15T09:21:37;0.90;;;0.90;;
58992;SDS011;44782;0.000;0.000;2023-04-15T09:23:53;0.97;;;0.97;;
58992;SDS011;44782;0.000;0.000;2023-04-15T09:26:13;1.00;;;1.00;;
58992;SDS011;44782;0.000;0.000;2023-04-15T09:28:31;0.83;;;0.83;;
58992;SDS011;44782;0.000;0.000;2023-04-15T09:30:47;0.83;;;0.83;;
58992;SDS011;44782;0.000;0.000;2023-04-15T09:33:13;0.80;;;0.80;;
58992;SDS011;44782;0.000;0.000;2023-04-15T09:35:29;0.80;;;0.80;;
58992;SDS011;44782;0.000;0.000;2023-04-15T09:37:45;0.90;;;0.90;;
58992;SDS011;44782;0.000;0.000;2023-04-15T09:40:00;1.03;;;1.00;;
58992;SDS011;44782;0.000;0.000;2023-04-15T09:42:16;0.90;;;0.90;;
58992;SDS011;44782;0.000;0.000;2023-04-15T09:44:38;0.97;;;0.97;;
58992;SDS011;44782;0.000;0.000;2023-04-15T09:46:54;1.00;;;1.00;;
58992;SDS011;44782;0.000;0.000;2023-04-15T09:49:10;0.90;;;0.90;;
58992;SDS011;44782;0.000;0.000;2023-04-15T09:51:33;0.90;;;0.90;;
58992;SDS011;44782;0.000;0.000;2023-04-15T09:53:49;0.93;;;0.93;;
58992;SDS011;44782;0.000;0.000;2023-04-15T09:56:08;0.97;;;0.97;;
58992;SDS011;44782;0.000;0.000;2023-04-15T09:58:26;1.00;;;1.00;;
58992;SDS011;44782;0.000;0.000;2023-04-15T10:00:43;0.90;;;0.90;;
58992;SDS011;44782;0.000;0.000;2023-04-15T10:03:01;0.87;;;0.87;;
58992;SDS011;44782;0.000;0.000;2023-04-15T10:05:19;1.00;;;1.00;;
58992;SDS011;44782;0.000;0.000;2023-04-15T10:07:37;1.03;;;1.00;;
58992;SDS011;44782;0.000;0.000;2023-04-15T10:09:57;1.00;;;1.00;;
58992;SDS011;44782;0.000;0.000;2023-04-15T10:12:15;0.80;;;0.80;;
58992;SDS011;44782;0.000;0.000;2023-04-15T10:14:33;0.97;;;0.97;;
58992;SDS011;44782;0.000;0.000;2023-04-15T10:16:49;0.90;;;0.90;;
58992;SDS011;44782;0.000;0.000;2023-04-15T10:19:07;0.93;;;0.93;;
58992;SDS011;44782;0.000;0.000;2023-04-15T10:21:24;1.30;;;1.07;;
58992;SDS011;44782;0.000;0.000;2023-04-15T10:23:41;1.00;;;1.00;;
58992;SDS011;44782;0.000;0.000;2023-04-15T10:25:56;0.90;;;0.90;;
58992;SDS011;44782;0.000;0.000;2023-04-15T10:28:14;1.20;;;1.10;;
58992;SDS011;44782;0.000;0.000;2023-04-15T10:30:31;0.90;;;0.90;;
58992;SDS011;44782;0.000;0.000;2023-04-15T10:32:47;0.90;;;0.90;;
58992;SDS011;44782;0.000;0.000;2023-04-15T10:35:04;1.00;;;1.00;;
58992;SDS011;44782;0.000;0.000;2023-04-15T10:37:21;1.00;;;1.00;;
58992;SDS011;44782;0.000;0.000;2023-04-15T10:39:47;1.30;;;1.10;;
58992;SDS011;44782;0.000;0.000;2023-04-15T10:42:16;0.90;;;0.90;;
58992;SDS011;44782;0.000;0.000;2023-04-15T10:44:36;1.10;;;1.07;;
58992;SDS011;44782;0.000;0.000;2023-04-15T10:46:59;1.53;;;1.10;;
58992;SDS011;44782;0.000;0.000;2023-04-15T10:49:15;1.60;;;1.50;;
58992;SDS011;44782;0.000;0.000;2023-04-15T10:51:39;2.13;;;1.57;;
58992;SDS011;44782;0.000;0.000;2023-04-15T10:54:05;6.97;;;2.70;;
58992;SDS011;44782;0.000;0.000;2023-04-15T10:56:28;3.27;;;2.30;;
58992;SDS011;44782;0.000;0.000;2023-04-15T10:58:44;5.63;;;2.90;;
58992;SDS011;44782;0.000;0.000;2023-04-15T11:01:00;4.70;;;2.40;;
58992;SDS011;44782;0.000;0.000;2023-04-15T11:03:21;3.43;;;2.10;;
58992;SDS011;44782;0.000;0.000;2023-04-15T11:05:52;4.33;;;2.10;;
58992;SDS011;44782;0.000;0.000;2023-04-15T11:08:10;4.83;;;2.20;;
58992;SDS011;44782;0.000;0.000;2023-04-15T11:12:45;4.00;;;1.80;;
58992;SDS011;44782;0.000;0.000;2023-04-15T11:17:39;2.80;;;2.07;;
58992;SDS011;44782;0.000;0.000;2023-04-15T11:19:55;2.27;;;1.83;;
58992;SDS011;44782;0.000;0.000;2023-04-15T11:22:11;3.73;;;2.10;;
58992;SDS011;44782;0.000;0.000;2023-04-15T11:24:27;3.77;;;2.20;;
58992;SDS011;44782;0.000;0.000;2023-04-15T11:26:42;3.93;;;2.10;;
58992;SDS011;44782;0.000;0.000;2023-04-15T11:28:58;4.63;;;2.00;;
58992;SDS011;44782;0.000;0.000;2023-04-15T11:31:16;3.53;;;2.20;;
58992;SDS011;44782;0.000;0.000;2023-04-15T11:33:33;3.10;;;2.03;;
58992;SDS011;44782;0.000;0.000;2023-04-15T11:35:50;3.17;;;2.20;;
58992;SDS011;44782;0.000;0.000;2023-04-15T11:38:09;4.30;;;2.50;;
58992;SDS011;44782;0.000;0.000;2023-04-15T11:40:28;3.07;;;2.20;;
58992;SDS011;44782;0.000;0.000;2023-04-15T11:42:45;4.57;;;2.27;;
58992;SDS011;44782;0.000;0.000;2023-04-15T11:45:07;3.17;;;2.10;;
58992;SDS011;44782;0.000;0.000;2023-04-15T11:47:24;4.10;;;2.07;;
58992;SDS011;44782;0.000;0.000;2023-04-15T11:49:43;5.23;;;2.30;;
58992;SDS011;44782;0.000;0.000;2023-04-15T11:51:59;3.10;;;2.13;;
58992;SDS011;44782;0.000;0.000;2023-04-15T11:54:17;3.83;;;2.00;;
58992;SDS011;44782;0.000;0.000;2023-04-15T11:56:33;2.83;;;2.03;;
58992;SDS011;44782;0.000;0.000;2023-04-15T11:58:53;4.20;;;2.03;;
58992;SDS011;44782;0.000;0.000;2023-04-15T12:01:16;3.70;;;2.10;;
58992;SDS011;44782;0.000;0.000;2023-04-15T12:11:03;2.97;;;1.90;;
58992;SDS011;44782;0.000;0.000;2023-04-15T12:13:18;2.47;;;1.60;;
58992;SDS011;44782;0.000;0.000;2023-04-15T12:15:36;2.87;;;1.87;;
58992;SDS011;44782;0.000;0.000;2023-04-15T12:17:53;2.53;;;1.83;;
58992;SDS011;44782;0.000;0.000;2023-04-15T12:20:09;3.17;;;1.90;;
58992;SDS011;44782;0.000;0.000;2023-04-15T12:22:28;2.87;;;2.20;;
58992;SDS011;44782;0.000;0.000;2023-04-15T12:24:43;4.13;;;1.80;;
58992;SDS011;44782;0.000;0.000;2023-04-15T12:27:05;1.77;;;1.63;;
58992;SDS011;44782;0.000;0.000;2023-04-15T12:29:28;2.50;;;1.70;;
58992;SDS011;44782;0.000;0.000;2023-04-15T12:31:48;2.07;;;1.80;;
58992;SDS011;44782;0.000;0.000;2023-04-15T12:34:13;2.00;;;1.70;;
58992;SDS011;44782;0.000;0.000;2023-04-15T12:36:30;2.03;;;1.60;;
58992;SDS011;44782;0.000;0.000;2023-04-15T12:38:50;2.27;;;1.70;;
58992;SDS011;44782;0.000;0.000;2023-04-15T12:41:06;3.43;;;1.93;;
58992;SDS011;44782;0.000;0.000;2023-04-15T12:43:21;2.43;;;1.77;;
58992;SDS011;44782;0.000;0.000;2023-04-15T12:45:37;2.33;;;1.50;;
58992;SDS011;44782;0.000;0.000;2023-04-15T12:47:53;1.97;;;1.77;;
58992;SDS011;44782;0.000;0.000;2023-04-15T12:50:08;2.10;;;1.73;;
58992;SDS011;44782;0.000;0.000;2023-04-15T12:52:24;2.00;;;1.60;;
58992;SDS011;44782;0.000;0.000;2023-04-15T12:54:40;1.80;;;1.53;;
58992;SDS011;44782;0.000;0.000;2023-04-15T12:56:56;1.90;;;1.70;;
58992;SDS011;44782;0.000;0.000;2023-04-15T12:59:13;1.60;;;1.50;;
58992;SDS011;44782;0.000;0.000;2023-04-15T13:01:29;1.93;;;1.40;;
58992;SDS011;44782;0.000;0.000;2023-04-15T13:03:45;2.77;;;1.60;;
58992;SDS011;44782;0.000;0.000;2023-04-15T13:06:00;2.40;;;1.50;;
58992;SDS011;44782;0.000;0.000;2023-04-15T13:08:18;1.57;;;1.47;;
58992;SDS011;44782;0.000;0.000;2023-04-15T13:10:34;2.27;;;1.50;;
58992;SDS011;44782;0.000;0.000;2023-04-15T13:12:53;1.53;;;1.40;;
58992;SDS011;44782;0.000;0.000;2023-04-15T13:15:10;1.40;;;1.20;;
58992;SDS011;44782;0.000;0.000;2023-04-15T13:17:27;1.77;;;1.50;;
58992;SDS011;44782;0.000;0.000;2023-04-15T13:19:42;1.40;;;1.20;;
58992;SDS011;44782;0.000;0.000;2023-04-15T13:21:58;2.00;;;1.23;;
58992;SDS011;44782;0.000;0.000;2023-04-15T13:24:14;1.50;;;1.40;;
58992;SDS011;44782;0.000;0.000;2023-04-15T13:26:29;1.67;;;1.50;;
58992;SDS011;44782;0.000;0.000;2023-04-15T13:28:45;1.33;;;1.23;;
58992;SDS011;44782;0.000;0.000;2023-04-15T13:31:01;1.50;;;1.40;;
58992;SDS011;44782;0.000;0.000;2023-04-15T13:33:17;1.67;;;1.23;;
58992;SDS011;44782;0.000;0.000;2023-04-15T13:35:33;1.83;;;1.30;;
58992;SDS011;44782;0.000;0.000;2023-04-15T13:37:49;2.03;;;1.53;;
58992;SDS011;44782;0.000;0.000;2023-04-15T13:40:04;2.87;;;1.40;;
58992;SDS011;44782;0.000;0.000;2023-04-15T13:42:22;1.57;;;1.40;;
58992;SDS011;44782;0.000;0.000;2023-04-15T13:44:37;1.50;;;1.40;;
58992;SDS011;44782;0.000;0.000;2023-04-15T13:46:53;1.60;;;1.40;;
58992;SDS011;44782;0.000;0.000;2023-04-15T13:49:09;1.20;;;1.10;;
58992;SDS011;44782;0.000;0.000;2023-04-15T13:51:25;1.03;;;1.00;;
58992;SDS011;44782;0.000;0.000;2023-04-15T13:53:41;1.40;;;1.20;;
58992;SDS011;44782;0.000;0.000;2023-04-15T13:55:56;1.37;;;1.20;;
58992;SDS011;44782;0.000;0.000;2023-04-15T13:58:12;1.50;;;1.27;;
58992;SDS011;44782;0.000;0.000;2023-04-15T14:00:28;1.30;;;1.20;;
58992;SDS011;44782;0.000;0.000;2023-04-15T14:02:43;1.37;;;0.97;;
58992;SDS011;44782;0.000;0.000;2023-04-15T14:05:00;1.33;;;1.23;;
58992;SDS011;44782;0.000;0.000;2023-04-15T14:07:15;1.30;;;1.10;;
58992;SDS011;44782;0.000;0.000;2023-04-15T14:09:31;2.40;;;1.43;;
58992;SDS011;44782;0.000;0.000;2023-04-15T14:11:47;1.70;;;1.30;;